Time;durP1;ratioP1;P1;durP2;ratioP2;P2;SDS_P1;SDS_P2;PMS_P1;PMS_P2;Temp;Humidity;BMP_temperature;BMP_pressure;BME280_temperature;BME280_humidity;BME280_pressure;Samples;Min_cycle;Max_cycle;Signal;HPM_P1;HPM_P2
2022/10/29 00:01:43;;;;;;;;;;;15.70;99.90;;;;;;5097887;28;19963;-62
2022/10/29 00:04:11;;;;;;;;;;;15.70;99.90;;;;;;5087686;28;19989;-62
2022/10/29 00:06:39;;;;;;;;;;;15.70;99.90;;;;;;5081224;28;19963;-61
2022/10/29 00:09:06;;;;;;;;;;;15.70;99.90;;;;;;5085925;28;19970;-62
2022/10/29 00:11:35;;;;;;;;;;;15.70;99.90;;;;;;5086480;28;19969;-62
2022/10/29 00:14:03;;;;;;;;;;;15.70;99.90;;;;;;5094615;28;19968;-62
2022/10/29 00:16:34;;;;;;;;;;;15.70;99.90;;;;;;5085774;28;19973;-62
2022/10/29 00:19:03;;;;;;;;;;;15.60;99.90;;;;;;5076586;28;20355;-62
2022/10/29 00:21:31;;;;;;;;;;;15.60;99.90;;;;;;5093014;28;19980;-62
2022/10/29 00:23:59;;;;;;;;;;;15.70;99.90;;;;;;5089096;28;19968;-62
2022/10/29 00:26:27;;;;;;;;;;;15.70;99.90;;;;;;5083734;28;19963;-62
2022/10/29 00:28:57;;;;;;;;;;;15.70;99.90;;;;;;5083701;28;19964;-62
2022/10/29 00:31:24;;;;;;;;;;;15.70;99.90;;;;;;5102387;28;19996;-62
2022/10/29 00:33:53;;;;;;;;;;;15.70;99.90;;;;;;5091841;28;20001;-61
2022/10/29 00:36:22;;;;;;;;;;;15.70;99.90;;;;;;5090066;28;19967;-61
2022/10/29 00:38:49;;;;;;;;;;;15.70;99.90;;;;;;5092644;28;19990;-62
2022/10/29 00:41:18;;;;;;;;;;;15.70;99.90;;;;;;5078672;28;20001;-62
2022/10/29 00:43:47;;;;;;;;;;;15.70;99.90;;;;;;5072609;28;19968;-62
2022/10/29 00:46:21;;;;;;;;;;;15.60;99.90;;;;;;5072362;28;19976;-62
2022/10/29 00:48:52;;;;;;;;;;;15.60;99.90;;;;;;5071539;28;20157;-61
2022/10/29 00:51:20;;;;;;;;;;;15.60;99.90;;;;;;5095673;23;19967;-62
2022/10/29 00:53:50;;;;;;;;;;;15.50;99.90;;;;;;5085283;28;19967;-63
2022/10/29 00:56:18;;;;;;;;;;;15.50;99.90;;;;;;5087988;28;19972;-63
2022/10/29 00:58:46;;;;;;;;;;;15.50;99.90;;;;;;5070654;28;20008;-63
2022/10/29 01:01:14;;;;;;;;;;;15.40;99.90;;;;;;5065182;28;20549;-62
2022/10/29 01:03:43;;;;;;;;;;;15.30;99.90;;;;;;5064562;28;19967;-63
2022/10/29 01:06:11;;;;;;;;;;;15.40;99.90;;;;;;5072096;28;20058;-63
2022/10/29 01:08:38;;;;;;;;;;;15.40;99.90;;;;;;5060087;28;19967;-63
2022/10/29 01:11:12;;;;;;;;;;;15.40;99.90;;;;;;5051959;28;19981;-63
2022/10/29 01:13:50;;;;;;;;;;;15.50;99.90;;;;;;5052002;28;20002;-63
2022/10/29 01:16:23;;;;;;;;;;;15.40;99.90;;;;;;5051919;28;20356;-63
2022/10/29 01:19:00;;;;;;;;;;;15.40;99.90;;;;;;5051942;28;19968;-63
2022/10/29 01:21:38;;;;;;;;;;;15.40;99.90;;;;;;5052023;28;20387;-63
2022/10/29 01:24:19;;;;;;;;;;;15.30;99.90;;;;;;5042132;28;19991;-63
2022/10/29 01:26:57;;;;;;;;;;;15.30;99.90;;;;;;5031832;28;20371;-63
2022/10/29 01:29:34;;;;;;;;;;;15.20;99.90;;;;;;5046998;28;19968;-64
2022/10/29 01:32:07;;;;;;;;;;;15.30;99.90;;;;;;5056048;28;19970;-63
2022/10/29 01:34:38;;;;;;;;;;;15.10;99.90;;;;;;5071613;28;20394;-63
2022/10/29 01:37:13;;;;;;;;;;;15.00;99.90;;;;;;5071687;28;20455;-63
2022/10/29 01:39:43;;;;;;;;;;;15.00;99.90;;;;;;5071295;28;20013;-63
2022/10/29 01:42:12;;;;;;;;;;;15.00;99.90;;;;;;5071821;28;20379;-63
2022/10/29 01:44:43;;;;;;;;;;;15.00;99.90;;;;;;5055167;28;19968;-63
2022/10/29 01:47:14;;;;;;;;;;;15.00;99.90;;;;;;5050500;28;19975;-61
2022/10/29 01:49:44;;;;;;;;;;;15.00;99.90;;;;;;5042679;28;20449;-62
2022/10/29 01:52:13;;;;;;;;;;;15.00;99.90;;;;;;5049179;28;19989;-63
2022/10/29 01:54:41;;;;;;;;;;;15.00;99.90;;;;;;5043072;28;19974;-62
2022/10/29 01:57:29;;;;;;;;;;;15.00;99.90;;;;;;5050388;28;19974;-62
2022/10/29 01:59:58;;;;;;;;;;;14.90;99.90;;;;;;5049705;28;20000;-63
2022/10/29 02:02:33;;;;;;;;;;;14.90;99.90;;;;;;5050491;28;19999;-62
2022/10/29 02:05:11;;;;;;;;;;;14.90;99.90;;;;;;5049895;28;20490;-63
2022/10/29 02:07:44;;;;;;;;;;;14.90;99.90;;;;;;5043831;28;20006;-63
2022/10/29 02:10:15;;;;;;;;;;;14.80;99.90;;;;;;5049617;28;19964;-62
2022/10/29 02:12:46;;;;;;;;;;;14.80;99.90;;;;;;5051017;28;20074;-63
2022/10/29 02:15:16;;;;;;;;;;;14.70;99.90;;;;;;5050464;28;20000;-63
2022/10/29 02:17:46;;;;;;;;;;;14.80;99.90;;;;;;5044173;28;19967;-62
2022/10/29 02:20:14;;;;;;;;;;;14.80;99.90;;;;;;5046840;28;19968;-63
2022/10/29 02:22:42;;;;;;;;;;;14.80;99.90;;;;;;5044689;28;20059;-63
2022/10/29 02:25:11;;;;;;;;;;;14.80;99.90;;;;;;5055142;28;20538;-63
2022/10/29 02:27:38;;;;;;;;;;;14.80;99.90;;;;;;5054576;28;19968;-63
2022/10/29 02:30:07;;;;;;;;;;;14.80;99.90;;;;;;5054305;28;20452;-63
2022/10/29 02:32:34;;;;;;;;;;;14.70;99.90;;;;;;5056873;28;19963;-63
2022/10/29 02:35:04;;;;;;;;;;;14.70;99.90;;;;;;5053766;28;19975;-62
2022/10/29 02:37:32;;;;;;;;;;;14.70;99.90;;;;;;5052859;28;19977;-63
2022/10/29 02:39:59;;;;;;;;;;;14.70;99.90;;;;;;5053544;28;19972;-63
2022/10/29 02:42:27;;;;;;;;;;;14.70;99.90;;;;;;5054257;28;19969;-63
2022/10/29 02:44:55;;;;;;;;;;;14.70;99.90;;;;;;5054284;28;20471;-63
2022/10/29 02:47:22;;;;;;;;;;;14.60;99.90;;;;;;5054309;28;19968;-67
2022/10/29 02:49:50;;;;;;;;;;;14.60;99.90;;;;;;5053232;28;20001;-63
2022/10/29 02:52:19;;;;;;;;;;;14.60;99.90;;;;;;5053961;28;20081;-63
2022/10/29 02:54:47;;;;;;;;;;;14.60;99.90;;;;;;5052762;28;19979;-63
2022/10/29 02:57:14;;;;;;;;;;;14.50;99.90;;;;;;5053224;28;19973;-62
2022/10/29 02:59:42;;;;;;;;;;;14.60;99.90;;;;;;5052806;28;19974;-63
2022/10/29 03:02:10;;;;;;;;;;;14.60;99.90;;;;;;5047589;28;20333;-63
2022/10/29 03:04:38;;;;;;;;;;;14.60;99.90;;;;;;5044911;28;19964;-62
2022/10/29 03:07:06;;;;;;;;;;;14.70;99.90;;;;;;5053342;28;19968;-62
2022/10/29 03:09:35;;;;;;;;;;;14.50;99.90;;;;;;5051900;28;19964;-61
2022/10/29 03:12:03;;;;;;;;;;;14.50;99.90;;;;;;5053207;28;19968;-62
2022/10/29 03:14:30;;;;;;;;;;;14.50;99.90;;;;;;5054027;28;19967;-62
2022/10/29 03:16:58;;;;;;;;;;;14.50;99.90;;;;;;5053315;28;19971;-62
2022/10/29 03:19:26;;;;;;;;;;;14.50;99.90;;;;;;5054172;28;19968;-62
2022/10/29 03:21:53;;;;;;;;;;;14.50;99.90;;;;;;5052728;28;19969;-62
2022/10/29 03:24:21;;;;;;;;;;;14.60;99.90;;;;;;5052766;28;20444;-63
2022/10/29 03:26:50;;;;;;;;;;;14.40;99.90;;;;;;5052534;28;20061;-62
2022/10/29 03:29:18;;;;;;;;;;;14.40;99.90;;;;;;5053252;28;19968;-63
2022/10/29 03:31:45;;;;;;;;;;;14.40;99.90;;;;;;5051938;28;20343;-63
2022/10/29 03:34:13;;;;;;;;;;;14.40;99.90;;;;;;5052744;28;19974;-62
2022/10/29 03:36:41;;;;;;;;;;;14.40;99.90;;;;;;5052982;28;19966;-63
2022/10/29 03:39:09;;;;;;;;;;;14.40;99.90;;;;;;5052573;28;19983;-62
2022/10/29 03:41:36;;;;;;;;;;;14.40;99.90;;;;;;5051236;28;19971;-63
2022/10/29 03:44:06;;;;;;;;;;;14.40;99.90;;;;;;5053409;28;19971;-62
2022/10/29 03:46:33;;;;;;;;;;;14.40;99.90;;;;;;5051872;28;19965;-62
2022/10/29 03:49:01;;;;;;;;;;;14.40;99.90;;;;;;5052401;28;20333;-63
2022/10/29 03:51:29;;;;;;;;;;;14.40;99.90;;;;;;5052073;28;20470;-63
2022/10/29 03:53:57;;;;;;;;;;;14.40;99.90;;;;;;5052433;28;19967;-62
2022/10/29 03:56:24;;;;;;;;;;;14.40;99.90;;;;;;5051454;28;19968;-62
2022/10/29 03:58:52;;;;;;;;;;;14.30;99.90;;;;;;5052259;28;19963;-62
2022/10/29 04:01:21;;;;;;;;;;;14.40;99.90;;;;;;5051052;28;19979;-62
2022/10/29 04:03:49;;;;;;;;;;;14.40;99.90;;;;;;5052143;28;19994;-63
2022/10/29 04:06:17;;;;;;;;;;;14.40;99.90;;;;;;5052515;28;19975;-63
2022/10/29 04:08:44;;;;;;;;;;;14.30;99.90;;;;;;5050768;28;19971;-62
2022/10/29 04:11:12;;;;;;;;;;;14.30;99.90;;;;;;5051528;28;20084;-63
2022/10/29 04:13:40;;;;;;;;;;;14.30;99.90;;;;;;5052811;28;20338;-62
2022/10/29 04:16:08;;;;;;;;;;;14.30;99.90;;;;;;5052019;28;19972;-63
2022/10/29 04:18:37;;;;;;;;;;;14.30;99.90;;;;;;5045746;28;19968;-63
2022/10/29 04:21:05;;;;;;;;;;;14.40;99.90;;;;;;5049943;28;19982;-62
2022/10/29 04:23:53;;;;;;;;;;;14.40;99.90;;;;;;5052771;28;19971;-62
2022/10/29 04:26:42;;;;;;;;;;;14.40;99.90;;;;;;5052459;28;19972;-61
2022/10/29 04:29:29;;;;;;;;;;;14.50;99.90;;;;;;5050919;28;20567;-63
2022/10/29 04:31:57;;;;;;;;;;;14.60;99.90;;;;;;5051587;28;19967;-62
2022/10/29 04:34:26;;;;;;;;;;;14.60;99.90;;;;;;5052014;28;20452;-63
2022/10/29 04:36:54;;;;;;;;;;;14.70;99.90;;;;;;5051863;28;19971;-62
2022/10/29 04:39:21;;;;;;;;;;;14.70;99.90;;;;;;5052134;28;19973;-62
2022/10/29 04:41:50;;;;;;;;;;;14.70;99.90;;;;;;5051156;28;19967;-63
2022/10/29 04:44:18;;;;;;;;;;;14.70;99.90;;;;;;5051646;28;19968;-63
2022/10/29 04:46:46;;;;;;;;;;;14.70;99.90;;;;;;5048108;28;20013;-60
2022/10/29 04:49:14;;;;;;;;;;;14.80;99.90;;;;;;5048999;28;20503;-62
2022/10/29 04:51:43;;;;;;;;;;;14.80;99.90;;;;;;5038031;28;19968;-63
2022/10/29 04:54:11;;;;;;;;;;;14.80;99.90;;;;;;5050942;28;19964;-63
2022/10/29 04:56:38;;;;;;;;;;;14.80;99.90;;;;;;5050546;28;19971;-63
2022/10/29 04:59:06;;;;;;;;;;;14.70;99.90;;;;;;5050892;28;19983;-62
2022/10/29 05:01:34;;;;;;;;;;;14.70;99.90;;;;;;5051925;28;19969;-63
2022/10/29 05:04:07;;;;;;;;;;;14.80;99.90;;;;;;5051056;28;20443;-63
2022/10/29 05:06:34;;;;;;;;;;;14.90;99.90;;;;;;5051395;28;20335;-62
2022/10/29 05:09:03;;;;;;;;;;;14.90;99.90;;;;;;5051214;28;20371;-62
2022/10/29 05:11:31;;;;;;;;;;;15.00;99.90;;;;;;5051013;28;19967;-63
2022/10/29 05:13:59;;;;;;;;;;;15.00;99.90;;;;;;5051188;28;19976;-63
2022/10/29 05:16:26;;;;;;;;;;;15.00;99.90;;;;;;5049315;28;19967;-63
2022/10/29 05:18:54;;;;;;;;;;;15.10;99.90;;;;;;5050790;28;19963;-63
2022/10/29 05:21:22;;;;;;;;;;;15.10;99.90;;;;;;5050234;28;19974;-63
2022/10/29 05:23:49;;;;;;;;;;;15.10;99.90;;;;;;5051660;28;20447;-62
2022/10/29 05:26:18;;;;;;;;;;;15.10;99.90;;;;;;5050746;28;20377;-62
2022/10/29 05:28:48;;;;;;;;;;;15.10;99.90;;;;;;5050594;28;19963;-62
2022/10/29 05:31:16;;;;;;;;;;;15.10;99.90;;;;;;5051787;28;20010;-63
2022/10/29 05:33:44;;;;;;;;;;;15.10;99.90;;;;;;5050784;28;19975;-63
2022/10/29 05:36:12;;;;;;;;;;;15.10;99.90;;;;;;5046940;28;19967;-61
2022/10/29 05:38:40;;;;;;;;;;;15.10;99.90;;;;;;5049884;28;20524;-63
2022/10/29 05:41:08;;;;;;;;;;;15.10;99.90;;;;;;5048939;28;19991;-63
2022/10/29 05:43:37;;;;;;;;;;;15.10;99.90;;;;;;5050887;28;19970;-63
2022/10/29 05:46:04;;;;;;;;;;;15.20;99.90;;;;;;5049960;28;19972;-63
2022/10/29 05:48:32;;;;;;;;;;;15.20;99.90;;;;;;5050814;28;19972;-63
2022/10/29 05:51:00;;;;;;;;;;;15.20;99.90;;;;;;5050434;28;19991;-63
2022/10/29 05:53:28;;;;;;;;;;;15.20;99.90;;;;;;5050464;28;20059;-63
2022/10/29 05:55:55;;;;;;;;;;;15.20;99.90;;;;;;5054455;28;19967;-63
2022/10/29 05:58:23;;;;;;;;;;;15.10;99.90;;;;;;5054909;28;19968;-63
2022/10/29 06:00:52;;;;;;;;;;;15.10;99.90;;;;;;5053433;28;19970;-63
2022/10/29 06:03:20;;;;;;;;;;;15.20;99.90;;;;;;5053458;28;20062;-62
2022/10/29 06:05:49;;;;;;;;;;;15.20;99.90;;;;;;5052548;28;19964;-63
2022/10/29 06:08:17;;;;;;;;;;;15.20;99.90;;;;;;5054227;28;20054;-63
2022/10/29 06:10:45;;;;;;;;;;;15.20;99.90;;;;;;5054508;28;19963;-62
2022/10/29 06:13:13;;;;;;;;;;;15.10;99.90;;;;;;5051464;28;19983;-62
2022/10/29 06:15:41;;;;;;;;;;;15.10;99.90;;;;;;5047797;28;19983;-60
2022/10/29 06:18:10;;;;;;;;;;;15.20;99.90;;;;;;5044927;28;20321;-62
2022/10/29 06:20:38;;;;;;;;;;;15.10;99.90;;;;;;5053188;28;20391;-63
2022/10/29 06:23:06;;;;;;;;;;;15.10;99.90;;;;;;5053590;28;19972;-62
2022/10/29 06:25:34;;;;;;;;;;;15.10;99.90;;;;;;5052359;28;19973;-63
2022/10/29 06:28:03;;;;;;;;;;;15.10;99.90;;;;;;5052968;28;20444;-62
2022/10/29 06:30:31;;;;;;;;;;;15.20;99.90;;;;;;5052567;28;19978;-63
2022/10/29 06:32:59;;;;;;;;;;;15.20;99.90;;;;;;5053067;28;19967;-63
2022/10/29 06:35:28;;;;;;;;;;;15.20;99.90;;;;;;5067164;28;19979;-63
2022/10/29 06:37:56;;;;;;;;;;;15.20;99.90;;;;;;5054358;28;19964;-62
2022/10/29 06:40:25;;;;;;;;;;;15.30;99.90;;;;;;5054701;28;19972;-62
2022/10/29 06:42:58;;;;;;;;;;;15.30;99.90;;;;;;5054871;28;19978;-63
2022/10/29 06:45:25;;;;;;;;;;;15.30;99.90;;;;;;5049180;28;19968;-63
2022/10/29 06:47:53;;;;;;;;;;;15.40;99.90;;;;;;5039394;28;19974;-62
2022/10/29 06:50:21;;;;;;;;;;;15.30;99.90;;;;;;5033494;28;20047;-62
2022/10/29 06:52:54;;;;;;;;;;;15.40;99.90;;;;;;5039368;28;19965;-63
2022/10/29 06:55:23;;;;;;;;;;;15.50;99.90;;;;;;5040296;28;19967;-63
2022/10/29 06:57:55;;;;;;;;;;;15.50;99.90;;;;;;5049569;28;19964;-63
2022/10/29 07:00:23;;;;;;;;;;;15.50;99.90;;;;;;5053923;28;20448;-63
2022/10/29 07:02:51;;;;;;;;;;;15.50;99.90;;;;;;5043417;28;20489;-63
2022/10/29 07:05:19;;;;;;;;;;;15.50;99.90;;;;;;5044757;28;19988;-63
2022/10/29 07:07:47;;;;;;;;;;;15.60;99.90;;;;;;5040317;28;19963;-63
2022/10/29 07:10:16;;;;;;;;;;;15.60;99.90;;;;;;5042335;28;19991;-63
2022/10/29 07:12:44;;;;;;;;;;;15.70;99.90;;;;;;5041502;28;19966;-62
2022/10/29 07:15:12;;;;;;;;;;;15.70;99.90;;;;;;5068017;22;19967;-63
2022/10/29 07:17:39;;;;;;;;;;;15.80;99.90;;;;;;5062173;28;19963;-63
2022/10/29 07:20:08;;;;;;;;;;;15.80;99.90;;;;;;5061380;28;20073;-63
2022/10/29 07:22:35;;;;;;;;;;;15.80;99.90;;;;;;5064259;28;19978;-62
2022/10/29 07:25:03;;;;;;;;;;;15.80;99.90;;;;;;5056677;28;19989;-62
2022/10/29 07:27:32;;;;;;;;;;;15.70;99.90;;;;;;5060895;28;20058;-62
2022/10/29 07:30:00;;;;;;;;;;;15.70;99.90;;;;;;5057399;28;20063;-62
2022/10/29 07:32:28;;;;;;;;;;;15.80;99.90;;;;;;5053152;28;19975;-62
2022/10/29 07:34:56;;;;;;;;;;;15.80;99.90;;;;;;5048284;28;19968;-62
2022/10/29 07:37:23;;;;;;;;;;;15.70;99.90;;;;;;5059849;28;20059;-62
2022/10/29 07:39:51;;;;;;;;;;;15.80;99.90;;;;;;5053380;28;20364;-61
2022/10/29 07:42:19;;;;;;;;;;;15.70;99.90;;;;;;5053087;28;19968;-62
2022/10/29 07:44:48;;;;;;;;;;;15.70;99.90;;;;;;5051120;28;19998;-62
2022/10/29 07:47:15;;;;;;;;;;;15.80;99.90;;;;;;5052031;28;19972;-62
2022/10/29 07:49:43;;;;;;;;;;;15.80;99.90;;;;;;5051586;28;20058;-61
2022/10/29 07:52:11;;;;;;;;;;;15.80;99.90;;;;;;5045055;28;19975;-62
2022/10/29 07:54:39;;;;;;;;;;;15.80;99.90;;;;;;5052114;28;19963;-61
2022/10/29 07:57:06;;;;;;;;;;;15.80;99.90;;;;;;5050479;28;19976;-62
2022/10/29 07:59:34;;;;;;;;;;;16.00;99.90;;;;;;5057273;28;19968;-63
2022/10/29 08:02:03;;;;;;;;;;;16.00;99.90;;;;;;5057946;28;19973;-62
2022/10/29 08:04:31;;;;;;;;;;;16.10;99.90;;;;;;5058510;28;20333;-64
2022/10/29 08:06:58;;;;;;;;;;;16.10;99.90;;;;;;5058482;28;19985;-62
2022/10/29 08:09:26;;;;;;;;;;;16.10;99.90;;;;;;5057511;28;19967;-62
2022/10/29 08:11:54;;;;;;;;;;;16.10;99.90;;;;;;5057567;28;20451;-62
2022/10/29 08:14:21;;;;;;;;;;;16.10;99.90;;;;;;5051807;28;20447;-62
2022/10/29 08:16:49;;;;;;;;;;;16.10;99.90;;;;;;5047193;28;21309;-63
2022/10/29 08:19:18;;;;;;;;;;;16.10;99.90;;;;;;5051718;28;19966;-63
2022/10/29 08:21:46;;;;;;;;;;;16.20;99.90;;;;;;5053009;28;19963;-62
2022/10/29 08:24:15;;;;;;;;;;;16.30;99.90;;;;;;5052333;28;19970;-61
2022/10/29 08:26:42;;;;;;;;;;;16.40;99.90;;;;;;5053774;28;19967;-61
2022/10/29 08:29:10;;;;;;;;;;;16.40;99.90;;;;;;5052535;28;19963;-61
2022/10/29 08:31:38;;;;;;;;;;;16.40;99.90;;;;;;5050510;28;20999;-62
2022/10/29 08:34:05;;;;;;;;;;;16.50;99.90;;;;;;5052025;28;20290;-62
2022/10/29 08:36:40;;;;;;;;;;;16.50;99.90;;;;;;5043948;28;20007;-61
2022/10/29 08:39:08;;;;;;;;;;;16.50;99.90;;;;;;5044022;28;20016;-62
2022/10/29 08:41:42;;;;;;;;;;;16.60;99.90;;;;;;5051743;28;20442;-62
2022/10/29 08:44:19;;;;;;;;;;;16.60;99.90;;;;;;5044029;28;19982;-62
2022/10/29 08:46:49;;;;;;;;;;;16.60;99.90;;;;;;5051208;28;20016;-62
2022/10/29 08:49:18;;;;;;;;;;;16.80;99.90;;;;;;5032181;28;20458;-63
2022/10/29 08:51:50;;;;;;;;;;;16.80;99.90;;;;;;5032109;28;21154;-62
2022/10/29 08:54:18;;;;;;;;;;;16.80;99.90;;;;;;5030853;28;20324;-62
2022/10/29 08:57:02;;;;;;;;;;;16.90;99.90;;;;;;5050063;28;19973;-63
2022/10/29 08:59:31;;;;;;;;;;;17.00;99.90;;;;;;5052122;28;19963;-63
2022/10/29 09:01:59;;;;;;;;;;;16.90;99.90;;;;;;5060369;28;20066;-63
2022/10/29 09:04:28;;;;;;;;;;;16.90;99.90;;;;;;5070436;28;20439;-63
2022/10/29 09:07:13;;;;;;;;;;;16.90;99.90;;;;;;5072193;28;19969;-63
2022/10/29 09:09:43;;;;;;;;;;;16.90;99.90;;;;;;5070078;28;19970;-63
2022/10/29 09:12:18;;;;;;;;;;;16.80;99.90;;;;;;5052110;28;19969;-62
2022/10/29 09:14:53;;;;;;;;;;;16.80;99.90;;;;;;5051582;28;19967;-63
2022/10/29 09:17:26;;;;;;;;;;;16.90;99.90;;;;;;5052128;28;19963;-63
2022/10/29 09:20:05;;;;;;;;;;;17.10;99.90;;;;;;5051758;28;20469;-63
2022/10/29 09:22:38;;;;;;;;;;;17.20;99.90;;;;;;5051882;28;19966;-62
2022/10/29 09:25:13;;;;;;;;;;;17.20;99.90;;;;;;5071252;28;20355;-62
2022/10/29 09:27:46;;;;;;;;;;;17.30;99.90;;;;;;5064648;28;19959;-63
2022/10/29 09:30:14;;;;;;;;;;;17.40;99.90;;;;;;5051968;28;19962;-62
2022/10/29 09:32:43;;;;;;;;;;;17.50;99.90;;;;;;5063352;28;19962;-63
2022/10/29 09:35:13;;;;;;;;;;;17.60;99.90;;;;;;5071634;28;20060;-62
2022/10/29 09:37:45;;;;;;;;;;;17.70;99.90;;;;;;5071728;28;19977;-62
2022/10/29 09:40:15;;;;;;;;;;;17.70;99.90;;;;;;5071600;28;20495;-63
2022/10/29 09:42:44;;;;;;;;;;;17.70;99.90;;;;;;5063641;28;19962;-63
2022/10/29 09:45:14;;;;;;;;;;;17.60;99.90;;;;;;5051616;28;19967;-63
2022/10/29 09:47:46;;;;;;;;;;;17.50;99.90;;;;;;5051742;28;19967;-63
2022/10/29 09:50:17;;;;;;;;;;;17.60;99.90;;;;;;5051470;28;20343;-63
2022/10/29 09:52:48;;;;;;;;;;;17.40;99.90;;;;;;5051797;28;19963;-63
2022/10/29 09:55:18;;;;;;;;;;;17.30;99.90;;;;;;5051458;28;19963;-62
2022/10/29 09:57:48;;;;;;;;;;;17.30;99.90;;;;;;5051704;28;19963;-62
2022/10/29 10:00:17;;;;;;;;;;;17.30;99.90;;;;;;5061207;28;19963;-63
2022/10/29 10:02:48;;;;;;;;;;;17.30;99.90;;;;;;5063115;28;19970;-65
2022/10/29 10:05:18;;;;;;;;;;;17.50;99.90;;;;;;5071295;28;19997;-65
2022/10/29 10:08:03;;;;;;;;;;;17.60;99.90;;;;;;5071457;28;19966;-65
2022/10/29 10:10:31;;;;;;;;;;;17.60;99.90;;;;;;5071279;28;19962;-65
2022/10/29 10:13:01;;;;;;;;;;;17.60;99.90;;;;;;5071498;28;19967;-66
2022/10/29 10:15:30;;;;;;;;;;;17.70;99.90;;;;;;5057715;28;20431;-65
2022/10/29 10:18:00;;;;;;;;;;;17.70;99.90;;;;;;5051677;28;19970;-65
2022/10/29 10:20:33;;;;;;;;;;;17.60;99.90;;;;;;5051452;28;19967;-65
2022/10/29 10:23:03;;;;;;;;;;;17.70;99.90;;;;;;5051387;28;20343;-64
2022/10/29 10:25:32;;;;;;;;;;;17.90;99.90;;;;;;5070918;28;19969;-65
2022/10/29 10:28:03;;;;;;;;;;;18.10;99.90;;;;;;5071375;28;20484;-65
2022/10/29 10:30:30;;;;;;;;;;;18.30;99.90;;;;;;5067380;28;19980;-65
2022/10/29 10:33:10;;;;;;;;;;;18.50;99.90;;;;;;5060848;28;20066;-63
2022/10/29 10:35:38;;;;;;;;;;;18.70;99.90;;;;;;5050971;28;19966;-62
2022/10/29 10:38:12;;;;;;;;;;;18.90;99.90;;;;;;5051244;28;20021;-62
2022/10/29 10:40:41;;;;;;;;;;;19.00;99.90;;;;;;5052659;28;19966;-62
2022/10/29 10:43:17;;;;;;;;;;;19.20;99.90;;;;;;5054920;28;20009;-62
2022/10/29 10:45:52;;;;;;;;;;;19.40;99.90;;;;;;5054382;28;19962;-63
2022/10/29 10:48:19;;;;;;;;;;;19.60;99.90;;;;;;5054632;28;19975;-63
2022/10/29 10:50:47;;;;;;;;;;;19.80;99.90;;;;;;5054345;28;20053;-63
2022/10/29 10:53:18;;;;;;;;;;;20.00;99.90;;;;;;5054941;28;19968;-63
2022/10/29 10:55:47;;;;;;;;;;;20.10;99.90;;;;;;5054613;28;19978;-63
2022/10/29 10:58:19;;;;;;;;;;;20.20;99.90;;;;;;5054810;28;19971;-63
2022/10/29 11:00:51;;;;;;;;;;;20.40;99.90;;;;;;5058969;28;19958;-62
2022/10/29 11:03:21;;;;;;;;;;;20.30;99.90;;;;;;5063247;28;19966;-62
2022/10/29 11:05:57;;;;;;;;;;;20.20;99.90;;;;;;5054514;28;19994;-62
2022/10/29 11:08:28;;;;;;;;;;;20.20;99.90;;;;;;5054327;28;19966;-63
2022/10/29 11:10:58;;;;;;;;;;;20.00;99.90;;;;;;5054235;28;20420;-63
2022/10/29 11:13:27;;;;;;;;;;;19.90;99.90;;;;;;5054481;28;20339;-63
2022/10/29 11:15:57;;;;;;;;;;;19.80;99.90;;;;;;5053492;28;19962;-63
2022/10/29 11:18:29;;;;;;;;;;;19.70;99.90;;;;;;5052145;28;20500;-63
2022/10/29 11:21:05;;;;;;;;;;;19.60;99.90;;;;;;5048190;28;19962;-62
2022/10/29 11:23:42;;;;;;;;;;;19.40;99.90;;;;;;5054265;28;20069;-62
2022/10/29 11:26:13;;;;;;;;;;;19.40;99.90;;;;;;5054104;28;19963;-62
2022/10/29 11:28:46;;;;;;;;;;;19.40;99.90;;;;;;5053963;28;19973;-63
2022/10/29 11:31:18;;;;;;;;;;;19.30;99.90;;;;;;5053835;28;19973;-62
2022/10/29 11:33:51;;;;;;;;;;;19.30;99.90;;;;;;5053802;28;19959;-62
2022/10/29 11:36:21;;;;;;;;;;;19.20;99.90;;;;;;5073661;28;20015;-62
2022/10/29 11:38:52;;;;;;;;;;;19.30;99.90;;;;;;5073815;28;19970;-64
2022/10/29 11:41:23;;;;;;;;;;;19.30;99.90;;;;;;5073708;28;19966;-63
2022/10/29 11:43:51;;;;;;;;;;;19.30;99.90;;;;;;5074030;28;19966;-63
2022/10/29 11:46:21;;;;;;;;;;;19.50;99.90;;;;;;5073714;28;19998;-63
2022/10/29 11:48:52;;;;;;;;;;;19.50;99.90;;;;;;5055621;28;20341;-63
2022/10/29 11:51:25;;;;;;;;;;;19.50;99.90;;;;;;5054997;28;20013;-63
2022/10/29 11:53:56;;;;;;;;;;;19.60;99.90;;;;;;5053423;28;20016;-63
2022/10/29 11:56:30;;;;;;;;;;;19.60;99.90;;;;;;5053782;28;20005;-63
2022/10/29 11:59:01;;;;;;;;;;;19.70;99.90;;;;;;5053577;28;20485;-62
2022/10/29 12:01:36;;;;;;;;;;;19.80;99.90;;;;;;5053138;28;20053;-63
2022/10/29 12:04:24;;;;;;;;;;;19.90;99.90;;;;;;5053070;28;19963;-63
2022/10/29 12:06:59;;;;;;;;;;;19.90;99.90;;;;;;5073138;28;20056;-63
2022/10/29 12:09:37;;;;;;;;;;;19.90;99.90;;;;;;5073191;28;20038;-64
2022/10/29 12:12:11;;;;;;;;;;;19.90;99.90;;;;;;5073283;28;20438;-63
2022/10/29 12:14:42;;;;;;;;;;;19.90;99.90;;;;;;5073010;28;19969;-63
2022/10/29 12:17:12;;;;;;;;;;;19.80;99.90;;;;;;5066659;28;20060;-63
2022/10/29 12:19:45;;;;;;;;;;;19.90;99.90;;;;;;5060691;28;19997;-62
2022/10/29 12:22:22;;;;;;;;;;;20.00;99.90;;;;;;5053178;28;19962;-63
2022/10/29 12:24:58;;;;;;;;;;;20.00;99.90;;;;;;5052259;28;19973;-63
2022/10/29 12:27:29;;;;;;;;;;;20.00;99.90;;;;;;5052960;28;20020;-63
2022/10/29 12:29:58;;;;;;;;;;;20.00;99.90;;;;;;5052712;28;19972;-63
2022/10/29 12:32:29;;;;;;;;;;;19.90;99.90;;;;;;5052999;28;20206;-62
2022/10/29 12:35:01;;;;;;;;;;;19.90;99.90;;;;;;5052610;28;20339;-64
2022/10/29 12:37:33;;;;;;;;;;;19.90;99.90;;;;;;5052764;28;20061;-63
2022/10/29 12:40:06;;;;;;;;;;;19.90;99.90;;;;;;5051923;28;20000;-62
2022/10/29 12:42:34;;;;;;;;;;;20.00;99.90;;;;;;5052677;28;20390;-62
2022/10/29 12:45:06;;;;;;;;;;;20.00;99.90;;;;;;5072432;28;19967;-62
2022/10/29 12:47:38;;;;;;;;;;;20.10;99.90;;;;;;5065446;28;20060;-63
2022/10/29 12:50:12;;;;;;;;;;;20.10;99.90;;;;;;5063458;28;19968;-62
2022/10/29 12:52:43;;;;;;;;;;;20.10;99.90;;;;;;5072500;28;19962;-63
2022/10/29 12:55:13;;;;;;;;;;;20.00;99.90;;;;;;5059861;28;20053;-62
2022/10/29 12:57:41;;;;;;;;;;;19.90;99.90;;;;;;5052448;28;20053;-62
2022/10/29 13:00:26;;;;;;;;;;;20.00;99.90;;;;;;5051891;28;20398;-62
2022/10/29 13:02:54;;;;;;;;;;;20.00;99.90;;;;;;5058915;28;19993;-62
2022/10/29 13:05:37;;;;;;;;;;;20.00;99.90;;;;;;5072084;28;19975;-63
2022/10/29 13:08:10;;;;;;;;;;;20.10;99.90;;;;;;5072204;28;19962;-62
2022/10/29 13:10:52;;;;;;;;;;;20.10;99.90;;;;;;5053854;28;20447;-62
2022/10/29 13:13:24;;;;;;;;;;;20.10;99.90;;;;;;5052191;28;20001;-62
2022/10/29 13:15:58;;;;;;;;;;;20.20;99.90;;;;;;5065516;22;19959;-63
2022/10/29 13:18:28;;;;;;;;;;;20.20;99.90;;;;;;5034971;28;20354;-64
2022/10/29 13:20:56;;;;;;;;;;;20.30;99.90;;;;;;5037474;28;19962;-64
2022/10/29 13:23:31;;;;;;;;;;;20.30;99.90;;;;;;5031881;28;19963;-64
2022/10/29 13:26:01;;;;;;;;;;;20.30;99.90;;;;;;5032334;28;20340;-63
2022/10/29 13:28:49;;;;;;;;;;;20.30;99.90;;;;;;5032084;28;19971;-64
2022/10/29 13:31:42;;;;;;;;;;;20.20;99.90;;;;;;5031543;28;19966;-63
2022/10/29 13:34:09;;;;;;;;;;;20.10;99.90;;;;;;5032231;28;19963;-64
2022/10/29 13:36:37;;;;;;;;;;;20.10;99.90;;;;;;5031802;28;19963;-63
2022/10/29 13:39:17;;;;;;;;;;;20.00;99.90;;;;;;5023431;28;19970;-63
2022/10/29 13:41:49;;;;;;;;;;;19.90;99.90;;;;;;5011823;28;20339;-64
2022/10/29 13:44:19;;;;;;;;;;;19.90;99.90;;;;;;5012260;28;20348;-64
2022/10/29 13:46:48;;;;;;;;;;;19.90;99.90;;;;;;5012271;28;19968;-63
2022/10/29 13:49:18;;;;;;;;;;;19.70;99.90;;;;;;5037500;28;20447;-64
2022/10/29 13:51:50;;;;;;;;;;;19.80;99.90;;;;;;5051064;28;19966;-63
2022/10/29 13:54:37;;;;;;;;;;;19.90;99.90;;;;;;5038463;28;20525;-64
2022/10/29 13:57:08;;;;;;;;;;;19.80;99.90;;;;;;5023814;28;20412;-64
2022/10/29 13:59:39;;;;;;;;;;;19.90;99.90;;;;;;5031713;28;20052;-63
2022/10/29 14:02:16;;;;;;;;;;;20.00;99.90;;;;;;5025333;28;20062;-63
2022/10/29 14:04:47;;;;;;;;;;;20.00;99.90;;;;;;5012484;28;20677;-64
2022/10/29 14:07:18;;;;;;;;;;;20.00;99.90;;;;;;5014612;28;20046;-63
2022/10/29 14:09:47;;;;;;;;;;;20.00;99.90;;;;;;5012836;28;19959;-64
2022/10/29 14:12:18;;;;;;;;;;;20.00;99.90;;;;;;5012084;28;19985;-63
2022/10/29 14:14:50;;;;;;;;;;;20.10;99.90;;;;;;5016191;28;19960;-63
2022/10/29 14:17:18;;;;;;;;;;;20.10;99.90;;;;;;5049080;28;19965;-63
2022/10/29 14:19:47;;;;;;;;;;;20.20;99.90;;;;;;5054537;28;20386;-63
2022/10/29 14:22:32;;;;;;;;;;;20.20;99.90;;;;;;5054581;28;20050;-64
2022/10/29 14:25:00;;;;;;;;;;;20.30;99.90;;;;;;5053261;28;19967;-64
2022/10/29 14:27:30;;;;;;;;;;;20.30;99.90;;;;;;5054310;28;20641;-63
2022/10/29 14:30:14;;;;;;;;;;;20.30;99.90;;;;;;5054867;28;19969;-63
2022/10/29 14:32:44;;;;;;;;;;;20.30;99.90;;;;;;5054067;28;19966;-63
2022/10/29 14:35:15;;;;;;;;;;;20.40;99.90;;;;;;5034974;28;20010;-63